createdAt,value
2019-05-02T00:00:31.105Z,1.0689
2019-05-02T00:01:33.173Z,1.0711
2019-05-02T00:02:35.316Z,1.0576
2019-05-02T00:03:41.103Z,1.0521
2019-05-02T00:04:43.465Z,1.0491
2019-05-02T00:05:45.378Z,1.0182
2019-05-02T00:06:47.271Z,0.9612
2019-05-02T00:07:49.352Z,0.9341
2019-05-02T00:08:51.287Z,0.9316
2019-05-02T00:09:53.197Z,0.9286
2019-05-02T00:10:55.096Z,0.9159
2019-05-02T00:11:58.793Z,0.8670
2019-05-02T00:13:01.314Z,0.8285
2019-05-02T00:14:03.261Z,0.7773
2019-05-02T00:15:05.096Z,0.7445
2019-05-02T00:16:09.220Z,0.7169
2019-05-02T00:17:13.287Z,0.6843
2019-05-02T00:18:15.519Z,0.6718
2019-05-02T00:19:17.386Z,0.6077
2019-05-02T00:20:21.110Z,0.5615
2019-05-02T00:21:25.544Z,0.5546
2019-05-02T00:22:27.385Z,0.4993
2019-05-02T00:23:29.654Z,0.4825
2019-05-02T00:24:33.951Z,0.4684
2019-05-02T00:25:37.878Z,0.4671
2019-05-02T00:26:39.707Z,0.4616
2019-05-02T00:27:41.647Z,0.4307
2019-05-02T00:28:48.216Z,0.4149
2019-05-02T00:29:53.816Z,0.4370
2019-05-02T00:30:56.840Z,0.5292
2019-05-02T00:31:58.947Z,0.6812
2019-05-02T00:33:00.815Z,0.7997
2019-05-02T00:34:02.041Z,0.8544
2019-05-02T00:35:03.891Z,0.8264
2019-05-02T00:36:05.068Z,0.7789
2019-05-02T00:37:06.904Z,0.7621
2019-05-02T00:38:08.806Z,0.7454
2019-05-02T00:39:13.823Z,0.7705
2019-05-02T00:40:20.266Z,0.8060
2019-05-02T00:41:23.333Z,0.8304
2019-05-02T00:42:25.135Z,0.8632
2019-05-02T00:43:28.986Z,0.9001
2019-05-02T00:44:33.902Z,0.9077
2019-05-02T00:45:35.749Z,0.8762
2019-05-02T00:46:37.649Z,0.8234
2019-05-02T00:47:42.362Z,0.7616
2019-05-02T00:48:45.873Z,0.6757
2019-05-02T00:49:47.704Z,0.6016
2019-05-02T00:50:50.648Z,0.5203
2019-05-02T00:51:56.590Z,0.3853
2019-05-02T00:53:00.823Z,0.3291
2019-05-02T00:54:02.285Z,0.3559
2019-05-02T00:55:04.201Z,0.3609
2019-05-02T00:56:09.103Z,0.3921
2019-05-02T00:57:14.947Z,0.4628
2019-05-02T00:58:18.601Z,0.5298
2019-05-02T00:59:20.413Z,0.5377
2019-05-02T01:00:22.270Z,0.5501
2019-05-02T01:01:29.502Z,0.5627
2019-05-02T01:02:30.875Z,0.5649
2019-05-02T01:03:32.186Z,0.5479
2019-05-02T01:04:33.466Z,0.5190
2019-05-02T01:05:38.381Z,0.4919
2019-05-02T01:06:44.773Z,0.4672
2019-05-02T01:07:48.241Z,0.5204
2019-05-02T01:08:50.094Z,0.5871
2019-05-02T01:09:51.997Z,0.6339
2019-05-02T01:10:56.899Z,0.6836
2019-05-02T01:12:03.220Z,0.7621
2019-05-02T01:13:06.563Z,0.8744
2019-05-02T01:14:08.406Z,0.9462
2019-05-02T01:15:10.357Z,0.9536
2019-05-02T01:16:15.169Z,0.9001
2019-05-02T01:17:18.837Z,0.8412
2019-05-02T01:18:20.700Z,0.7671
2019-05-02T01:19:22.546Z,0.7444
2019-05-02T01:20:27.756Z,0.7732
2019-05-02T01:21:33.982Z,0.8439
2019-05-02T01:22:36.854Z,1.1086
2019-05-02T01:23:38.718Z,1.5518
2019-05-02T01:24:41.666Z,1.9093
2019-05-02T01:25:47.371Z,2.2980
2019-05-02T01:26:49.274Z,2.7065
2019-05-02T01:27:51.434Z,2.9930
2019-05-02T01:28:54.190Z,3.1060
2019-05-02T01:30:01.456Z,3.0470
2019-05-02T01:31:03.130Z,2.9005
2019-05-02T01:32:04.067Z,2.6859
2019-05-02T01:33:06.509Z,2.4582
2019-05-02T01:34:13.017Z,2.1977
2019-05-02T01:35:16.022Z,1.9565
2019-05-02T01:36:17.822Z,1.7629
2019-05-02T01:37:21.125Z,1.5757
2019-05-02T01:38:26.413Z,1.5145
2019-05-02T01:39:30.752Z,1.5713
2019-05-02T01:40:32.657Z,1.7704
2019-05-02T01:41:33.868Z,1.8498
2019-05-02T01:42:40.095Z,1.8237
2019-05-02T01:43:41.991Z,1.7634
2019-05-02T01:44:44.043Z,1.7805
2019-05-02T01:45:46.555Z,1.7019
2019-05-02T01:46:48.614Z,1.5533
2019-05-02T01:47:49.810Z,1.4236
2019-05-02T01:48:51.600Z,1.3000
2019-05-02T01:49:57.152Z,1.1888
2019-05-02T01:50:59.604Z,1.1238
2019-05-02T01:52:00.801Z,1.1105
2019-05-02T01:53:02.708Z,1.1716
2019-05-02T01:54:04.982Z,1.2905
2019-05-02T01:55:11.572Z,1.4137
2019-05-02T01:56:13.437Z,1.5074
2019-05-02T01:57:15.322Z,1.6105
2019-05-02T01:58:21.006Z,1.6183
2019-05-02T01:59:23.454Z,1.5175
2019-05-02T02:00:25.776Z,1.4355
2019-05-02T02:01:27.698Z,1.4036
2019-05-02T02:02:32.757Z,1.3362
2019-05-02T02:03:35.366Z,1.3614
2019-05-02T02:04:37.276Z,1.4846
2019-05-02T02:05:39.401Z,1.4459
2019-05-02T02:06:43.353Z,1.3535
2019-05-02T02:07:50.849Z,1.2393
2019-05-02T02:08:52.352Z,1.1707
2019-05-02T02:09:54.202Z,1.1223
2019-05-02T02:10:57.889Z,1.0531
2019-05-02T02:11:59.694Z,1.0184
2019-05-02T02:13:04.940Z,1.0067
2019-05-02T02:14:12.237Z,0.9715
2019-05-02T02:15:12.759Z,0.9507
2019-05-02T02:16:14.903Z,0.9152
2019-05-02T02:17:17.368Z,0.8814
2019-05-02T02:18:22.349Z,0.8432
2019-05-02T02:19:24.925Z,0.7653
2019-05-02T02:20:26.868Z,0.7851
2019-05-02T02:21:28.072Z,0.8924
2019-05-02T02:22:33.805Z,0.9216
2019-05-02T02:23:35.558Z,1.0564
2019-05-02T02:24:38.440Z,1.1183
2019-05-02T02:25:39.744Z,1.1234
2019-05-02T02:26:43.726Z,1.2107
2019-05-02T02:27:48.140Z,1.2592
2019-05-02T02:28:50.289Z,1.2257
2019-05-02T02:29:52.083Z,1.1605
2019-05-02T02:30:57.643Z,1.1415
2019-05-02T02:32:00.262Z,1.1221
2019-05-02T02:33:07.384Z,1.0637
2019-05-02T02:34:08.441Z,0.9693
2019-05-02T02:35:12.581Z,0.9258
2019-05-02T02:36:14.640Z,0.8280
2019-05-02T02:37:16.897Z,0.7340
2019-05-02T02:38:18.820Z,0.6182
2019-05-02T02:39:20.654Z,0.5009
2019-05-02T02:40:32.975Z,0.3725
2019-05-02T02:41:28.858Z,0.2446
2019-05-02T02:42:31.743Z,0.1224
2019-05-02T02:43:35.755Z,0.0354
2019-05-02T02:44:40.023Z,-0.0168
2019-05-02T02:45:43.573Z,-0.0545
2019-05-02T02:46:45.461Z,-0.0984
2019-05-02T02:47:53.062Z,-0.0831
2019-05-02T02:48:53.912Z,-0.0824
2019-05-02T02:50:02.292Z,-0.0424
2019-05-02T02:51:02.084Z,0.0153
2019-05-02T02:52:04.699Z,0.0279
2019-05-02T02:53:07.844Z,0.0218
2019-05-02T02:54:10.016Z,0.0194
2019-05-02T02:55:16.145Z,0.0747
2019-05-02T02:56:18.237Z,0.1548
2019-05-02T02:57:26.447Z,0.1571
2019-05-02T02:58:26.449Z,0.1520
2019-05-02T02:59:28.620Z,0.1434
2019-05-02T03:00:29.506Z,0.1755
2019-05-02T03:01:31.433Z,0.1918
2019-05-02T03:02:33.268Z,0.1459
2019-05-02T03:03:35.837Z,0.1029
2019-05-02T03:04:43.976Z,0.1901
2019-05-02T03:05:44.376Z,0.3932
2019-05-02T03:06:47.172Z,0.4959
2019-05-02T03:07:49.128Z,0.4747
2019-05-02T03:08:51.028Z,0.4258
2019-05-02T03:09:53.107Z,0.3347
2019-05-02T03:10:54.941Z,0.2477
2019-05-02T03:12:02.073Z,0.1967
2019-05-02T03:13:03.129Z,0.1406
2019-05-02T03:14:07.196Z,0.0413
2019-05-02T03:15:11.483Z,-0.1048
2019-05-02T03:16:13.324Z,-0.1972
2019-05-02T03:17:20.394Z,-0.2514
2019-05-02T03:18:21.526Z,-0.3115
2019-05-02T03:19:23.463Z,-0.3401
2019-05-02T03:20:24.624Z,-0.2984
2019-05-02T03:21:26.538Z,-0.2148
2019-05-02T03:22:28.340Z,-0.1714
2019-05-02T03:23:29.563Z,-0.1426
2019-05-02T03:24:36.572Z,-0.0876
2019-05-02T03:25:49.957Z,-0.0357
2019-05-02T03:26:48.746Z,0.0952
2019-05-02T03:27:50.702Z,0.2185
2019-05-02T03:28:58.493Z,0.3863
2019-05-02T03:29:59.224Z,0.6761
2019-05-02T03:31:21.056Z,0.9284
2019-05-02T03:32:30.597Z,1.1339
2019-05-02T03:33:14.055Z,1.2475
2019-05-02T03:34:15.896Z,1.4790
2019-05-02T03:35:19.116Z,1.6990
2019-05-02T03:36:35.809Z,1.8675
2019-05-02T03:37:28.171Z,1.9925
2019-05-02T03:38:32.632Z,2.1127
2019-05-02T03:39:36.396Z,2.2368
2019-05-02T03:40:39.636Z,2.3521
2019-05-02T03:41:43.433Z,2.4334
2019-05-02T03:42:47.724Z,2.4748
2019-05-02T03:43:49.745Z,2.5722
2019-05-02T03:44:56.246Z,2.7538
2019-05-02T03:45:57.968Z,2.8956
2019-05-02T03:47:01.903Z,3.0082
2019-05-02T03:48:06.415Z,3.0187
2019-05-02T03:49:09.803Z,3.0018
2019-05-02T03:50:11.960Z,2.9274
2019-05-02T03:51:21.627Z,2.8342
2019-05-02T03:52:20.121Z,2.7549
2019-05-02T03:53:24.960Z,2.6738
2019-05-02T03:54:28.685Z,2.5810
2019-05-02T03:55:31.437Z,2.5017
2019-05-02T03:56:35.985Z,2.4165
2019-05-02T03:57:41.709Z,2.2696
2019-05-02T03:58:48.515Z,2.0796
2019-05-02T03:59:50.120Z,1.8978
2019-05-02T04:01:00.534Z,1.8419
2019-05-02T04:01:58.532Z,1.8829
2019-05-02T04:03:02.501Z,1.8192
2019-05-02T04:04:04.438Z,1.7182
2019-05-02T04:05:06.505Z,1.6731
2019-05-02T04:06:14.002Z,1.5370
2019-05-02T04:07:14.647Z,1.4239
2019-05-02T04:08:20.985Z,1.2964
2019-05-02T04:09:21.814Z,1.2037
2019-05-02T04:10:23.726Z,1.0669
2019-05-02T04:11:25.557Z,0.9806
2019-05-02T04:12:27.373Z,0.9373
2019-05-02T04:13:30.132Z,0.8777
2019-05-02T04:14:38.885Z,0.7861
2019-05-02T04:15:41.890Z,0.7803
2019-05-02T04:16:48.482Z,0.8183
2019-05-02T04:17:49.993Z,0.9028
2019-05-02T04:18:55.624Z,1.0514
2019-05-02T04:19:58.204Z,1.4600
2019-05-02T04:21:00.072Z,1.9073
2019-05-02T04:22:08.710Z,2.2429
2019-05-02T04:23:08.179Z,2.4639
2019-05-02T04:24:14.957Z,2.5271
2019-05-02T04:25:16.364Z,2.4883
2019-05-02T04:26:18.629Z,2.3645
2019-05-02T04:27:20.488Z,2.2235
2019-05-02T04:28:22.398Z,2.1025
2019-05-02T04:29:30.406Z,2.1420
2019-05-02T04:30:30.946Z,2.4017
2019-05-02T04:31:33.848Z,2.5636
2019-05-02T04:32:36.061Z,2.6445
2019-05-02T04:33:37.924Z,2.7669
2019-05-02T04:34:39.737Z,2.9335
2019-05-02T04:35:41.574Z,3.2095
2019-05-02T04:36:46.489Z,3.5014
2019-05-02T04:37:49.049Z,3.7190
2019-05-02T04:38:52.362Z,3.7846
2019-05-02T04:39:58.919Z,3.8052
2019-05-02T04:41:01.032Z,3.7525
2019-05-02T04:42:05.523Z,3.6733
2019-05-02T04:43:11.487Z,3.5533
2019-05-02T04:44:13.667Z,3.4827
2019-05-02T04:45:26.468Z,3.4453
2019-05-02T04:46:27.199Z,3.4839
2019-05-02T04:47:29.078Z,3.5588
2019-05-02T04:48:34.663Z,3.6514
2019-05-02T04:49:39.258Z,3.7660
2019-05-02T04:50:41.307Z,3.9144
2019-05-02T04:51:50.782Z,4.0451
2019-05-02T04:52:53.810Z,4.1943
2019-05-02T04:53:58.697Z,4.3205
2019-05-02T04:55:14.730Z,4.4000
2019-05-02T04:56:10.624Z,4.4736
2019-05-02T04:57:12.082Z,4.5091
2019-05-02T04:58:24.378Z,4.5915
2019-05-02T04:59:22.940Z,4.7144
2019-05-02T05:00:25.038Z,4.7428
2019-05-02T05:01:33.103Z,4.7030
2019-05-02T05:02:36.465Z,4.6517
2019-05-02T05:03:39.794Z,4.5538
2019-05-02T05:04:46.278Z,4.4469
2019-05-02T05:05:48.372Z,4.3039
2019-05-02T05:06:55.951Z,4.1850
2019-05-02T05:07:58.564Z,4.0597
2019-05-02T05:09:04.137Z,3.8487
2019-05-02T05:10:08.439Z,3.7706
2019-05-02T05:11:14.021Z,3.6433
2019-05-02T05:12:19.043Z,3.5526
2019-05-02T05:13:23.274Z,3.4989
2019-05-02T05:14:33.269Z,3.4187
2019-05-02T05:15:38.348Z,3.3731
2019-05-02T05:16:40.119Z,3.3931
2019-05-02T05:17:41.374Z,3.4628
2019-05-02T05:18:43.981Z,3.4900
2019-05-02T05:19:49.530Z,3.5171
2019-05-02T05:20:53.101Z,3.5486
2019-05-02T05:22:04.497Z,3.5608
2019-05-02T05:23:02.649Z,3.5808
2019-05-02T05:24:04.423Z,3.5744
2019-05-02T05:25:07.449Z,3.5882
2019-05-02T05:26:08.815Z,3.5912
2019-05-02T05:27:13.263Z,3.6302
2019-05-02T05:28:19.831Z,3.7091
2019-05-02T05:29:23.351Z,3.7795
2019-05-02T05:30:27.634Z,3.8617
2019-05-02T05:31:30.312Z,3.9732
2019-05-02T05:32:31.280Z,4.1525
2019-05-02T05:33:33.114Z,4.4087
2019-05-02T05:34:34.958Z,4.6352
2019-05-02T05:35:38.550Z,4.8080
2019-05-02T05:36:39.834Z,5.0345
2019-05-02T05:37:43.429Z,5.6425
2019-05-02T05:38:47.953Z,6.7570
2019-05-02T05:39:52.603Z,7.8267
2019-05-02T05:40:53.971Z,8.7604
2019-05-02T05:41:57.857Z,9.4586
2019-05-02T05:43:02.633Z,10.1080
2019-05-02T05:44:07.750Z,10.6678
2019-05-02T05:45:13.668Z,11.1925
2019-05-02T05:46:17.839Z,11.4464
2019-05-02T05:47:21.284Z,11.6230
2019-05-02T05:48:22.623Z,11.7601
2019-05-02T05:49:24.406Z,11.8355
2019-05-02T05:50:27.561Z,11.7746
2019-05-02T05:51:28.828Z,11.6279
2019-05-02T05:52:32.948Z,11.8372
2019-05-02T05:53:37.642Z,12.0625
2019-05-02T05:54:42.028Z,12.3521
2019-05-02T05:55:43.905Z,12.7501
2019-05-02T05:56:45.824Z,13.1010
2019-05-02T05:57:47.653Z,13.3922
2019-05-02T05:58:52.758Z,13.6837
2019-05-02T05:59:54.533Z,13.5821
2019-05-02T06:00:58.383Z,13.5783
2019-05-02T06:02:00.313Z,13.7110
2019-05-02T06:03:13.071Z,13.8164
2019-05-02T06:04:09.127Z,13.8621
2019-05-02T06:05:10.982Z,13.9572
2019-05-02T06:06:14.893Z,14.1845
2019-05-02T06:07:20.077Z,14.5274
2019-05-02T06:08:22.148Z,14.2968
2019-05-02T06:09:26.297Z,14.3513
2019-05-02T06:10:30.732Z,14.4741
2019-05-02T06:11:32.786Z,14.5169
2019-05-02T06:12:35.556Z,14.7424
2019-05-02T06:13:38.262Z,14.7966
2019-05-02T06:14:40.107Z,14.7179
2019-05-02T06:15:41.936Z,14.5749
2019-05-02T06:16:46.597Z,14.6701
2019-05-02T06:17:50.785Z,14.9582
2019-05-02T06:18:53.044Z,15.0647
2019-05-02T06:19:55.421Z,15.1154
2019-05-02T06:20:58.470Z,14.8589
2019-05-02T06:22:00.443Z,14.9389
2019-05-02T06:23:02.607Z,14.7741
2019-05-02T06:24:04.783Z,14.7467
2019-05-02T06:25:09.448Z,15.1242
2019-05-02T06:26:13.449Z,15.5699
2019-05-02T06:27:16.364Z,15.6113
2019-05-02T06:28:18.276Z,15.5559
2019-05-02T06:29:20.893Z,15.6763
2019-05-02T06:30:27.039Z,15.6801
2019-05-02T06:31:29.193Z,15.5941
2019-05-02T06:32:30.964Z,15.4997
2019-05-02T06:33:32.426Z,15.5561
2019-05-02T06:34:38.778Z,15.5499
2019-05-02T06:35:40.573Z,15.7357
2019-05-02T06:36:41.415Z,15.4030
2019-05-02T06:37:45.250Z,15.6024
2019-05-02T06:38:52.295Z,15.8048
2019-05-02T06:39:55.081Z,16.0683
2019-05-02T06:40:57.126Z,16.0600
2019-05-02T06:41:58.719Z,16.1124
2019-05-02T06:43:04.213Z,16.0672
2019-05-02T06:44:07.100Z,16.0909
2019-05-02T06:45:09.615Z,16.5155
2019-05-02T06:46:16.418Z,16.7083
2019-05-02T06:47:19.611Z,16.7050
2019-05-02T06:48:20.808Z,16.7665
2019-05-02T06:49:24.883Z,16.7880
2019-05-02T06:50:28.373Z,16.8230
2019-05-02T06:51:30.489Z,17.0386
2019-05-02T06:52:32.613Z,17.1493
2019-05-02T06:53:41.422Z,17.1555
2019-05-02T06:54:43.672Z,17.1752
2019-05-02T06:55:45.561Z,17.4030
2019-05-02T06:56:47.974Z,17.4868
2019-05-02T06:57:51.817Z,17.8026
2019-05-02T06:59:01.823Z,17.9838
2019-05-02T07:00:06.592Z,18.3592
2019-05-02T07:01:08.040Z,18.5949
2019-05-02T07:02:10.444Z,19.0198
2019-05-02T07:03:12.104Z,19.6978
2019-05-02T07:04:17.424Z,19.8186
2019-05-02T07:05:20.003Z,19.6812
2019-05-02T07:06:22.735Z,19.9140
2019-05-02T07:07:25.216Z,19.5752
2019-05-02T07:08:32.242Z,19.6320
2019-05-02T07:09:41.109Z,19.1357
2019-05-02T07:10:44.821Z,19.2847
2019-05-02T07:11:56.979Z,19.2967
2019-05-02T07:13:09.397Z,19.1310
2019-05-02T07:14:12.641Z,18.7709
2019-05-02T07:15:08.332Z,18.9243
2019-05-02T07:16:15.526Z,19.1415
2019-05-02T07:17:18.055Z,19.3879
2019-05-02T07:18:19.997Z,19.7901
2019-05-02T07:19:27.529Z,19.9594
2019-05-02T07:20:28.597Z,19.6762
2019-05-02T07:21:30.481Z,19.6257
2019-05-02T07:22:33.181Z,19.5613
2019-05-02T07:23:38.885Z,19.8478
2019-05-02T07:24:44.749Z,20.0673
2019-05-02T07:25:46.589Z,20.3417
2019-05-02T07:26:52.072Z,20.7300
2019-05-02T07:27:55.612Z,20.8248
2019-05-02T07:28:58.349Z,20.9552
2019-05-02T07:30:00.273Z,20.7562
2019-05-02T07:31:06.599Z,20.5972
2019-05-02T07:32:09.834Z,19.9720
2019-05-02T07:33:11.794Z,19.1629
2019-05-02T07:34:14.522Z,19.2493
2019-05-02T07:35:19.241Z,19.0072
2019-05-02T07:36:23.036Z,19.0306
2019-05-02T07:37:24.904Z,18.5069
2019-05-02T07:38:27.776Z,18.8211
2019-05-02T07:39:29.940Z,19.0441
2019-05-02T07:40:31.914Z,18.8451
2019-05-02T07:42:45.095Z,19.6471
2019-05-02T07:43:47.235Z,20.4194
2019-05-02T07:44:49.629Z,20.9279
2019-05-02T07:45:52.559Z,20.5145
2019-05-02T07:46:57.011Z,20.2822
2019-05-02T07:48:01.567Z,20.1417
2019-05-02T07:49:03.824Z,20.3747
2019-05-02T07:50:10.413Z,20.6584
2019-05-02T07:51:17.174Z,20.1045
2019-05-02T07:52:19.614Z,19.5559
2019-05-02T07:53:22.052Z,19.3049
2019-05-02T07:54:24.967Z,19.3592
2019-05-02T07:55:30.604Z,19.7023
2019-05-02T07:56:36.305Z,20.3625
2019-05-02T07:57:42.083Z,19.9711
2019-05-02T07:58:46.941Z,18.7104
2019-05-02T07:59:54.959Z,18.2267
2019-05-02T08:00:57.017Z,18.1907
2019-05-02T08:01:59.384Z,18.6850
2019-05-02T08:03:01.415Z,18.7370
2019-05-02T08:04:04.729Z,18.7028
2019-05-02T08:05:10.316Z,19.2806
2019-05-02T08:06:12.104Z,20.0902
2019-05-02T08:07:16.264Z,20.2423
2019-05-02T08:08:25.077Z,20.5070
2019-05-02T08:09:27.526Z,20.2825
2019-05-02T08:10:29.503Z,20.0999
2019-05-02T08:11:37.113Z,20.4099
2019-05-02T08:12:43.022Z,20.3227
2019-05-02T08:13:49.631Z,19.6426
2019-05-02T08:14:51.187Z,19.7028
2019-05-02T08:15:53.407Z,19.4274
2019-05-02T08:17:05.462Z,19.2902
2019-05-02T08:18:02.219Z,18.3152
2019-05-02T08:19:05.446Z,18.0316
2019-05-02T08:20:13.542Z,18.6128
2019-05-02T08:21:15.090Z,18.8701
2019-05-02T08:22:17.195Z,19.2369
2019-05-02T08:23:25.712Z,19.9522
2019-05-02T08:24:33.074Z,20.4395
2019-05-02T08:25:36.213Z,20.6534
2019-05-02T08:26:37.500Z,20.7562
2019-05-02T08:27:39.980Z,21.4949
2019-05-02T08:28:47.051Z,22.1454
2019-05-02T08:29:51.232Z,21.6948
2019-05-02T08:30:54.181Z,21.0424
2019-05-02T08:31:55.474Z,20.8478
2019-05-02T08:35:19.987Z,21.1915
2019-05-02T08:39:01.118Z,21.1931
2019-05-02T08:40:05.436Z,21.3107
2019-05-02T08:41:10.489Z,20.6225
2019-05-02T08:42:12.260Z,20.7996
2019-05-02T08:43:13.601Z,20.8029
2019-05-02T08:44:16.825Z,20.9628
2019-05-02T08:46:30.854Z,20.3260
2019-05-02T08:47:34.465Z,20.4787
2019-05-02T08:48:41.827Z,21.0133
2019-05-02T08:49:49.301Z,21.4169
2019-05-02T08:50:52.745Z,22.1747
2019-05-02T08:51:56.241Z,22.5034
2019-05-02T08:52:58.274Z,22.1886
2019-05-02T08:54:01.010Z,21.5748
2019-05-02T08:55:09.128Z,21.6696
2019-05-02T08:56:16.551Z,21.8388
2019-05-02T08:57:23.572Z,21.9934
2019-05-02T08:58:26.807Z,22.7030
2019-05-02T08:59:29.235Z,22.3650
2019-05-02T09:00:37.586Z,22.5347
2019-05-02T09:01:44.722Z,22.9033
2019-05-02T09:02:47.606Z,22.8774
2019-05-02T09:03:56.722Z,22.2136
2019-05-02T09:04:59.170Z,21.5929
2019-05-02T09:06:06.185Z,20.9183
2019-05-02T09:07:08.661Z,20.4289
2019-05-02T09:08:14.243Z,20.0049
2019-05-02T09:09:22.855Z,20.3628
2019-05-02T09:10:29.842Z,20.7437
2019-05-02T09:11:36.113Z,20.6957
2019-05-02T09:12:42.266Z,21.0791
2019-05-02T09:13:46.007Z,21.7179
2019-05-02T09:14:48.451Z,21.6581
2019-05-02T09:15:53.570Z,21.8038
2019-05-02T09:17:00.263Z,21.3089
2019-05-02T09:18:04.516Z,21.5816
2019-05-02T09:19:07.551Z,22.0162
2019-05-02T09:20:15.436Z,22.6745
2019-05-02T09:22:32.708Z,23.3922
2019-05-02T09:24:48.358Z,23.6313
2019-05-02T09:29:32.720Z,22.0938
2019-05-02T09:30:37.508Z,22.1274
2019-05-02T09:31:42.339Z,22.3322
2019-05-02T09:32:47.042Z,22.4444
2019-05-02T09:33:55.579Z,22.5184
2019-05-02T09:35:02.291Z,22.8499
2019-05-02T09:36:08.097Z,22.5539
2019-05-02T09:37:15.799Z,22.4516
2019-05-02T09:38:19.439Z,22.5063
2019-05-02T09:39:22.519Z,22.7340
2019-05-02T09:40:25.535Z,23.5428
2019-05-02T09:41:31.312Z,23.9660
2019-05-02T09:45:27.732Z,22.7335
2019-05-02T09:47:56.295Z,23.0141
2019-05-02T09:51:23.103Z,23.9417
2019-05-02T09:52:34.085Z,24.0807
2019-05-02T09:56:12.150Z,23.1728
2019-05-02T09:57:14.817Z,23.1786
2019-05-02T09:58:21.054Z,23.3383
2019-05-02T09:59:29.957Z,23.3232
2019-05-02T10:00:32.146Z,23.0983
2019-05-02T10:01:42.159Z,22.7184
2019-05-02T10:09:12.122Z,21.8936
2019-05-02T10:10:19.225Z,22.7254
2019-05-02T10:11:22.563Z,22.7193
2019-05-02T10:12:27.912Z,22.6559
2019-05-02T10:13:44.356Z,22.7617
2019-05-02T10:14:45.564Z,22.4923
2019-05-02T10:15:48.555Z,22.2774
2019-05-02T10:16:53.231Z,22.1849
2019-05-02T10:18:07.964Z,22.0864
2019-05-02T10:19:09.222Z,22.0674
2019-05-02T10:20:07.835Z,21.5561
2019-05-02T10:21:13.467Z,21.1862
2019-05-02T10:23:32.148Z,22.7193
2019-05-02T10:26:20.122Z,24.5748
2019-05-02T10:27:28.278Z,24.3743
2019-05-02T10:28:31.604Z,23.9693
2019-05-02T10:29:33.611Z,23.6548
2019-05-02T10:30:35.955Z,23.6189
2019-05-02T10:31:42.181Z,23.3237
2019-05-02T10:32:47.150Z,23.1145
2019-05-02T10:36:54.242Z,22.7187
2019-05-02T10:40:48.409Z,22.8225
2019-05-02T10:44:27.220Z,23.1646
2019-05-02T10:45:56.508Z,22.6787
2019-05-02T10:49:29.602Z,22.3433
2019-05-02T10:50:32.908Z,22.3733
2019-05-02T10:51:35.130Z,22.3674
2019-05-02T10:52:42.536Z,22.4174
2019-05-02T10:53:47.164Z,22.1956
2019-05-02T10:57:27.334Z,22.8933
2019-05-02T11:00:59.894Z,22.2735
2019-05-02T11:02:02.845Z,22.4344
2019-05-02T11:03:05.168Z,22.8735
2019-05-02T11:04:08.059Z,23.3830
2019-05-02T11:06:22.438Z,22.9533
2019-05-02T11:12:25.514Z,23.8269
2019-05-02T11:14:44.690Z,23.1361
2019-05-02T11:15:47.897Z,22.9209
2019-05-02T11:16:49.188Z,23.7529
2019-05-02T11:17:53.103Z,23.5790
2019-05-02T11:18:54.312Z,23.4240
2019-05-02T11:19:59.096Z,23.0852
2019-05-02T11:21:06.838Z,22.8759
2019-05-02T11:22:07.481Z,22.6295
2019-05-02T11:23:08.667Z,21.9882
2019-05-02T11:24:14.228Z,21.6511
2019-05-02T11:25:15.670Z,21.9229
2019-05-02T11:26:21.467Z,21.6120
2019-05-02T11:28:45.822Z,21.5399
2019-05-02T11:33:25.459Z,22.9259
2019-05-02T11:35:48.518Z,23.1308
2019-05-02T11:38:06.673Z,22.4911
2019-05-02T11:39:20.041Z,22.5987
2019-05-02T11:42:06.388Z,22.7217
2019-05-02T11:42:06.388Z,22.6896
2019-05-02T11:43:08.599Z,22.1424
2019-05-02T11:44:12.188Z,22.0373
2019-05-02T11:45:17.161Z,21.6726
2019-05-02T11:46:17.433Z,21.7617
2019-05-02T11:47:26.574Z,21.8423
2019-05-02T11:48:34.209Z,21.7637
2019-05-02T11:49:39.767Z,21.7275
2019-05-02T11:50:42.238Z,21.5914
2019-05-02T11:51:47.030Z,21.6472
2019-05-02T11:54:09.193Z,21.3535
2019-05-02T11:55:12.938Z,21.4211
2019-05-02T11:56:15.035Z,21.6804
2019-05-02T11:57:21.271Z,21.7801
2019-05-02T11:58:25.520Z,21.7926
2019-05-02T11:59:29.100Z,21.9361
2019-05-02T12:00:32.371Z,21.7618
2019-05-02T12:01:39.653Z,21.3127
2019-05-02T12:02:43.636Z,20.7536
2019-05-02T12:03:47.897Z,20.2819
2019-05-02T12:04:55.445Z,20.0897
2019-05-02T12:06:06.747Z,19.8172
2019-05-02T12:07:09.616Z,19.4608
2019-05-02T12:09:25.656Z,18.9974
2019-05-02T12:10:31.939Z,18.7912
2019-05-02T12:11:34.491Z,18.5063
2019-05-02T12:12:42.949Z,18.4415
2019-05-02T12:13:47.218Z,18.3037
2019-05-02T12:14:55.675Z,18.2323
2019-05-02T12:15:56.946Z,18.0848
2019-05-02T12:16:59.146Z,18.0773
2019-05-02T12:18:02.429Z,18.1043
2019-05-02T12:19:11.422Z,18.1251
2019-05-02T12:20:14.249Z,18.0703
2019-05-02T12:21:16.525Z,17.7326
2019-05-02T12:22:17.740Z,17.5396
2019-05-02T12:23:19.896Z,17.4212
2019-05-02T12:24:22.124Z,16.7407
2019-05-02T12:25:27.323Z,16.2881
2019-05-02T12:26:28.570Z,16.0899
2019-05-02T12:28:45.219Z,15.9653
2019-05-02T12:32:16.528Z,15.6968
2019-05-02T12:35:54.616Z,15.1643
2019-05-02T12:36:55.812Z,15.1017
2019-05-02T12:38:02.673Z,15.0444
2019-05-02T12:39:05.018Z,15.0202
2019-05-02T12:40:07.729Z,15.0669
2019-05-02T12:41:20.349Z,15.1147
2019-05-02T12:42:22.959Z,15.1823
2019-05-02T12:43:26.952Z,15.3262
2019-05-02T12:44:33.114Z,15.5253
2019-05-02T12:45:34.975Z,15.5985
2019-05-02T12:46:37.245Z,15.6175
2019-05-02T12:47:42.643Z,15.6931
2019-05-02T12:48:45.814Z,15.7213
2019-05-02T12:49:47.898Z,15.8290
2019-05-02T12:50:52.591Z,15.8676
2019-05-02T12:51:54.820Z,15.9709
2019-05-02T12:52:57.008Z,16.0032
2019-05-02T12:53:59.212Z,16.0566
2019-05-02T12:55:02.267Z,16.1950
2019-05-02T12:56:04.225Z,16.3013
2019-05-02T12:57:06.516Z,16.3092
2019-05-02T12:58:09.166Z,16.4220
2019-05-02T12:59:12.197Z,16.4403
2019-05-02T13:00:14.106Z,16.3306
2019-05-02T13:01:17.363Z,16.0719
2019-05-02T13:02:21.472Z,15.9937
2019-05-02T13:03:23.453Z,15.9087
2019-05-02T13:04:26.332Z,15.6181
2019-05-02T13:05:28.182Z,15.6782
2019-05-02T13:06:30.200Z,15.6798
2019-05-02T13:07:33.259Z,15.6408
2019-05-02T13:08:35.366Z,15.6522
2019-05-02T13:09:38.010Z,15.7396
2019-05-02T13:10:39.661Z,15.6431
2019-05-02T13:11:44.663Z,15.5371
2019-05-02T13:12:48.014Z,15.6283
2019-05-02T13:13:51.227Z,15.5912
2019-05-02T13:14:57.250Z,15.4779
2019-05-02T13:16:01.638Z,15.3012
2019-05-02T13:17:08.520Z,15.1085
2019-05-02T13:18:12.484Z,15.0844
2019-05-02T13:19:15.107Z,14.8596
2019-05-02T13:20:17.731Z,14.8363
2019-05-02T13:21:21.629Z,14.9637
2019-05-02T13:22:25.469Z,15.2237
2019-05-02T13:23:27.286Z,15.2855
2019-05-02T13:24:33.287Z,15.1866
2019-05-02T13:25:37.043Z,15.0098
2019-05-02T13:26:42.781Z,15.0630
2019-05-02T13:27:48.032Z,15.2996
2019-05-02T13:28:51.710Z,15.4897
2019-05-02T13:29:53.678Z,15.4120
2019-05-02T13:30:56.720Z,15.2640
2019-05-02T13:32:02.500Z,15.1349
2019-05-02T13:33:05.183Z,15.0047
2019-05-02T13:34:06.473Z,15.0628
2019-05-02T13:35:14.920Z,15.0736
2019-05-02T13:37:28.640Z,14.9923
2019-05-02T13:38:32.864Z,14.9439
2019-05-02T13:39:34.930Z,15.0224
2019-05-02T13:40:36.960Z,15.1572
2019-05-02T13:41:38.767Z,15.1792
2019-05-02T13:42:39.494Z,15.2120
2019-05-02T13:43:43.320Z,15.3866
2019-05-02T13:44:45.063Z,15.4189
2019-05-02T13:45:47.370Z,15.2012
2019-05-02T13:46:49.309Z,15.1980
2019-05-02T13:47:51.926Z,15.0953
2019-05-02T13:48:53.965Z,14.8307
2019-05-02T13:49:59.105Z,14.8956
2019-05-02T13:51:03.975Z,15.0110
2019-05-02T13:52:05.318Z,15.2821
2019-05-02T13:53:07.997Z,15.4817
2019-05-02T13:54:09.198Z,15.6779
2019-05-02T13:55:11.944Z,15.8700
2019-05-02T13:56:14.046Z,15.7753
2019-05-02T13:57:15.906Z,15.8152
2019-05-02T13:58:23.438Z,15.9263
2019-05-02T13:59:24.292Z,16.0274
2019-05-02T14:00:26.536Z,16.0784
2019-05-02T14:01:27.999Z,16.1324
2019-05-02T14:02:31.785Z,16.1799
2019-05-02T14:03:33.964Z,16.1868
2019-05-02T14:04:35.157Z,16.1142
2019-05-02T14:05:37.269Z,15.8267
2019-05-02T14:06:39.401Z,15.7556
2019-05-02T14:07:42.909Z,15.7771
2019-05-02T14:08:45.844Z,15.4809
2019-05-02T14:09:52.685Z,15.4360
2019-05-02T14:10:54.151Z,15.4674
2019-05-02T14:11:58.472Z,15.4153
2019-05-02T14:12:59.678Z,15.4590
2019-05-02T14:14:02.081Z,15.5216
2019-05-02T14:15:03.278Z,15.3899